Impacts METAR Board
IDs:

KMEM - Memphis Intl, TN, US

Updated at: 1100 UTC 23 May 2018
Potential Impact None Slight Moderate High
Time 22/23Z 23/00Z 23/01Z 23/02Z 23/03Z 23/04Z 23/05Z 23/06Z 23/07Z 23/08Z 23/09Z 23/10Z 23/11Z
Temp77 77 75 73 74 74 75 72 73 72 74 72 71
Dewpt66 70 70 70 69 69 69 69 70 69 70 70 70
Altim29.99 29.99 30.00 30.01 30.03 30.04 30.03 30.03 30.02 30.01 30.02 30.03 30.05
VIS10 10 10 10 10 10 10 10 10 10 10 10 10
CIG250 250 250 250 250 250 250 250 250 250 250 -- 250
CoverOVCOVCOVCOVCOVCBKNOVCOVCOVCOVCBKNSCTBKN
FltCatVFRVFRVFRVFRVFRVFRVFRVFRVFRVFRVFRVFRVFR
WX--------------------------
WDir100701202101000110801300090150
WSpd6 4 3 5 4 0 3 3 3 0 5 3 3
WGst-- -- -- -- -- -- -- -- -- -- -- -- --
Raw hourly METARs
KMEM 222254Z 10006KT 10SM FEW035 SCT075 OVC250 25/19 A2999 RMK AO2 LTG DSNT SE-W TSE15 SLP152 T02500189 $
KMEM 222354Z 07004KT 10SM FEW060 SCT150 OVC250 25/21 A2999 RMK AO2 LTG DSNT W SLP152 60000 T02500211 10311 20239 55003 $
KMEM 230054Z 12003KT 10SM FEW150 OVC250 24/21 A3000 RMK AO2 SLP154 T02390211 $
KMEM 230154Z 21005KT 10SM OVC250 23/21 A3001 RMK AO2 SLP158 T02280211 $
KMEM 230254Z 10004KT 10SM FEW120 OVC250 23/21 A3003 RMK AO2 SLP164 T02330206 53012 $
KMEM 230354Z 00000KT 10SM BKN250 23/21 A3004 RMK AO2 SLP168 T02330206 $
KMEM 230454Z 11003KT 10SM OVC250 24/21 A3003 RMK AO2 SLP166 T02390206 $
KMEM 230554Z 08003KT 10SM OVC250 22/21 A3003 RMK AO2 SLP164 T02220206 10250 20222 403110211 50000 $
KMEM 230654Z 13003KT 10SM OVC250 23/21 A3002 RMK AO2 SLP161 T02280211 $
KMEM 230754Z 00000KT 10SM FEW180 OVC250 22/21 A3001 RMK AO2 SLP158 T02220206 $
KMEM 230854Z VRB05KT 10SM BKN250 23/21 A3002 RMK AO2 SLP161 T02330211 55002 $
KMEM 230954Z 09003KT 10SM FEW180 SCT250 22/21 A3003 RMK AO2 SLP167 T02220211 $
KMEM 231054Z 15003KT 10SM FEW180 BKN250 22/21 A3005 RMK AO2 SLP173 T02170211 $



Page loaded:  11:11 UTC  |   04:11 AM Pacific  |   05:11 AM Mountain  |   06:11 AM Central  |   07:11 AM Eastern

 

ADVISORIES

FORECASTS

FORECASTS

OBSERVATIONS

USER TOOLS

ABOUT US